sensor_id;sensor_type;location;lat;lon;timestamp;P1;durP1;ratioP1;P2;durP2;ratioP2
32319;SDS011;19080;51.750;5.888;2022-07-21T00:00:14;30.52;;;27.65;;
32319;SDS011;19080;51.750;5.888;2022-07-21T00:02:41;25.42;;;22.98;;
32319;SDS011;19080;51.750;5.888;2022-07-21T00:05:08;23.80;;;21.45;;
32319;SDS011;19080;51.750;5.888;2022-07-21T00:07:34;26.65;;;22.95;;
32319;SDS011;19080;51.750;5.888;2022-07-21T00:10:01;25.25;;;22.67;;
32319;SDS011;19080;51.750;5.888;2022-07-21T00:12:28;23.92;;;21.63;;
32319;SDS011;19080;51.750;5.888;2022-07-21T00:14:54;23.02;;;20.75;;
32319;SDS011;19080;51.750;5.888;2022-07-21T00:17:21;20.65;;;18.60;;
32319;SDS011;19080;51.750;5.888;2022-07-21T00:19:47;21.92;;;19.55;;
32319;SDS011;19080;51.750;5.888;2022-07-21T00:22:14;22.10;;;19.77;;
32319;SDS011;19080;51.750;5.888;2022-07-21T00:24:40;22.42;;;19.95;;
32319;SDS011;19080;51.750;5.888;2022-07-21T00:27:07;22.45;;;20.30;;
32319;SDS011;19080;51.750;5.888;2022-07-21T00:29:34;22.58;;;20.48;;
32319;SDS011;19080;51.750;5.888;2022-07-21T00:32:00;24.35;;;21.75;;
32319;SDS011;19080;51.750;5.888;2022-07-21T00:34:27;26.65;;;23.85;;
32319;SDS011;19080;51.750;5.888;2022-07-21T00:36:53;22.95;;;20.80;;
32319;SDS011;19080;51.750;5.888;2022-07-21T00:39:20;25.55;;;22.83;;
32319;SDS011;19080;51.750;5.888;2022-07-21T00:41:46;24.70;;;22.20;;
32319;SDS011;19080;51.750;5.888;2022-07-21T00:44:20;24.80;;;22.42;;
32319;SDS011;19080;51.750;5.888;2022-07-21T00:46:47;25.77;;;23.33;;
32319;SDS011;19080;51.750;5.888;2022-07-21T00:49:14;21.25;;;19.17;;
32319;SDS011;19080;51.750;5.888;2022-07-21T00:51:41;24.77;;;22.25;;
32319;SDS011;19080;51.750;5.888;2022-07-21T00:54:08;21.25;;;19.30;;
32319;SDS011;19080;51.750;5.888;2022-07-21T00:56:35;20.33;;;18.33;;
32319;SDS011;19080;51.750;5.888;2022-07-21T00:59:02;20.85;;;18.88;;
32319;SDS011;19080;51.750;5.888;2022-07-21T01:01:28;19.35;;;17.35;;
32319;SDS011;19080;51.750;5.888;2022-07-21T01:03:55;19.13;;;17.23;;
32319;SDS011;19080;51.750;5.888;2022-07-21T01:06:23;17.83;;;16.13;;
32319;SDS011;19080;51.750;5.888;2022-07-21T01:08:49;19.67;;;17.98;;
32319;SDS011;19080;51.750;5.888;2022-07-21T01:11:18;20.08;;;18.13;;
32319;SDS011;19080;51.750;5.888;2022-07-21T01:13:47;18.58;;;16.70;;
32319;SDS011;19080;51.750;5.888;2022-07-21T01:16:14;18.88;;;16.90;;
32319;SDS011;19080;51.750;5.888;2022-07-21T01:18:41;15.65;;;14.25;;
32319;SDS011;19080;51.750;5.888;2022-07-21T01:21:27;15.27;;;13.88;;
32319;SDS011;19080;51.750;5.888;2022-07-21T01:23:54;14.00;;;12.65;;
32319;SDS011;19080;51.750;5.888;2022-07-21T01:26:20;14.82;;;13.43;;
32319;SDS011;19080;51.750;5.888;2022-07-21T01:28:47;15.55;;;13.95;;
32319;SDS011;19080;51.750;5.888;2022-07-21T01:31:14;14.55;;;13.15;;
32319;SDS011;19080;51.750;5.888;2022-07-21T01:33:41;13.98;;;12.70;;
32319;SDS011;19080;51.750;5.888;2022-07-21T01:36:07;14.02;;;12.75;;
32319;SDS011;19080;51.750;5.888;2022-07-21T01:38:34;16.10;;;14.13;;
32319;SDS011;19080;51.750;5.888;2022-07-21T01:41:20;16.27;;;14.77;;
32319;SDS011;19080;51.750;5.888;2022-07-21T01:43:56;14.90;;;13.38;;
32319;SDS011;19080;51.750;5.888;2022-07-21T01:46:23;15.63;;;14.13;;
32319;SDS011;19080;51.750;5.888;2022-07-21T01:48:50;15.77;;;14.20;;
32319;SDS011;19080;51.750;5.888;2022-07-21T01:51:17;15.38;;;13.98;;
32319;SDS011;19080;51.750;5.888;2022-07-21T01:53:43;14.48;;;13.10;;
32319;SDS011;19080;51.750;5.888;2022-07-21T01:56:10;15.05;;;13.65;;
32319;SDS011;19080;51.750;5.888;2022-07-21T01:58:37;14.55;;;13.10;;
32319;SDS011;19080;51.750;5.888;2022-07-21T02:01:03;16.83;;;15.23;;
32319;SDS011;19080;51.750;5.888;2022-07-21T02:03:30;14.20;;;12.80;;
32319;SDS011;19080;51.750;5.888;2022-07-21T02:06:03;15.02;;;13.63;;
32319;SDS011;19080;51.750;5.888;2022-07-21T02:08:31;14.88;;;13.48;;
32319;SDS011;19080;51.750;5.888;2022-07-21T02:10:57;17.27;;;15.57;;
32319;SDS011;19080;51.750;5.888;2022-07-21T02:13:24;18.05;;;16.23;;
32319;SDS011;19080;51.750;5.888;2022-07-21T02:15:51;17.63;;;15.95;;
32319;SDS011;19080;51.750;5.888;2022-07-21T02:18:19;17.00;;;15.27;;
32319;SDS011;19080;51.750;5.888;2022-07-21T02:20:46;18.05;;;16.20;;
32319;SDS011;19080;51.750;5.888;2022-07-21T02:23:14;17.33;;;15.57;;
32319;SDS011;19080;51.750;5.888;2022-07-21T02:25:41;19.88;;;17.65;;
32319;SDS011;19080;51.750;5.888;2022-07-21T02:28:09;19.45;;;17.45;;
32319;SDS011;19080;51.750;5.888;2022-07-21T02:30:35;19.70;;;17.63;;
32319;SDS011;19080;51.750;5.888;2022-07-21T02:33:02;18.95;;;17.15;;
32319;SDS011;19080;51.750;5.888;2022-07-21T02:35:29;17.73;;;16.05;;
32319;SDS011;19080;51.750;5.888;2022-07-21T02:37:56;18.00;;;16.30;;
32319;SDS011;19080;51.750;5.888;2022-07-21T02:40:22;21.02;;;18.83;;
32319;SDS011;19080;51.750;5.888;2022-07-21T02:42:49;19.35;;;17.38;;
32319;SDS011;19080;51.750;5.888;2022-07-21T02:45:15;17.85;;;16.05;;
32319;SDS011;19080;51.750;5.888;2022-07-21T02:50:22;20.10;;;18.00;;
32319;SDS011;19080;51.750;5.888;2022-07-21T02:52:49;18.88;;;16.98;;
32319;SDS011;19080;51.750;5.888;2022-07-21T02:55:15;17.90;;;16.25;;
32319;SDS011;19080;51.750;5.888;2022-07-21T02:57:42;17.52;;;15.82;;
32319;SDS011;19080;51.750;5.888;2022-07-21T03:00:09;18.90;;;16.90;;
32319;SDS011;19080;51.750;5.888;2022-07-21T03:02:36;20.10;;;18.10;;
32319;SDS011;19080;51.750;5.888;2022-07-21T03:05:03;18.42;;;16.65;;
32319;SDS011;19080;51.750;5.888;2022-07-21T03:07:30;20.33;;;18.33;;
32319;SDS011;19080;51.750;5.888;2022-07-21T03:09:56;19.10;;;17.27;;
32319;SDS011;19080;51.750;5.888;2022-07-21T03:12:23;19.75;;;17.77;;
32319;SDS011;19080;51.750;5.888;2022-07-21T03:14:49;19.15;;;17.35;;
32319;SDS011;19080;51.750;5.888;2022-07-21T03:17:15;19.33;;;17.42;;
32319;SDS011;19080;51.750;5.888;2022-07-21T03:19:42;18.27;;;16.48;;
32319;SDS011;19080;51.750;5.888;2022-07-21T03:22:08;22.02;;;19.80;;
32319;SDS011;19080;51.750;5.888;2022-07-21T03:24:35;19.63;;;17.77;;
32319;SDS011;19080;51.750;5.888;2022-07-21T03:27:01;18.25;;;16.42;;
32319;SDS011;19080;51.750;5.888;2022-07-21T03:29:33;19.80;;;17.73;;
32319;SDS011;19080;51.750;5.888;2022-07-21T03:31:59;18.05;;;16.27;;
32319;SDS011;19080;51.750;5.888;2022-07-21T03:34:26;19.48;;;17.58;;
32319;SDS011;19080;51.750;5.888;2022-07-21T03:36:52;20.02;;;17.98;;
32319;SDS011;19080;51.750;5.888;2022-07-21T03:39:20;17.20;;;15.50;;
32319;SDS011;19080;51.750;5.888;2022-07-21T03:41:46;18.92;;;17.02;;
32319;SDS011;19080;51.750;5.888;2022-07-21T03:44:13;20.75;;;18.75;;
32319;SDS011;19080;51.750;5.888;2022-07-21T03:46:39;19.85;;;17.75;;
32319;SDS011;19080;51.750;5.888;2022-07-21T03:49:06;19.75;;;17.77;;
32319;SDS011;19080;51.750;5.888;2022-07-21T03:51:32;20.40;;;18.42;;
32319;SDS011;19080;51.750;5.888;2022-07-21T03:53:59;18.33;;;16.52;;
32319;SDS011;19080;51.750;5.888;2022-07-21T03:56:26;20.27;;;18.25;;
32319;SDS011;19080;51.750;5.888;2022-07-21T03:58:53;20.58;;;18.48;;
32319;SDS011;19080;51.750;5.888;2022-07-21T04:01:19;20.60;;;18.65;;
32319;SDS011;19080;51.750;5.888;2022-07-21T04:03:46;20.83;;;18.77;;
32319;SDS011;19080;51.750;5.888;2022-07-21T04:06:14;19.05;;;17.20;;
32319;SDS011;19080;51.750;5.888;2022-07-21T04:08:40;19.52;;;17.63;;
32319;SDS011;19080;51.750;5.888;2022-07-21T04:11:07;18.48;;;16.67;;
32319;SDS011;19080;51.750;5.888;2022-07-21T04:13:33;18.60;;;16.90;;
32319;SDS011;19080;51.750;5.888;2022-07-21T04:15:59;23.40;;;21.17;;
32319;SDS011;19080;51.750;5.888;2022-07-21T04:18:26;22.83;;;20.35;;
32319;SDS011;19080;51.750;5.888;2022-07-21T04:20:52;20.85;;;18.75;;
32319;SDS011;19080;51.750;5.888;2022-07-21T04:23:19;21.10;;;18.98;;
32319;SDS011;19080;51.750;5.888;2022-07-21T04:25:45;18.00;;;16.17;;
32319;SDS011;19080;51.750;5.888;2022-07-21T04:28:12;19.27;;;17.35;;
32319;SDS011;19080;51.750;5.888;2022-07-21T04:30:38;21.73;;;19.33;;
32319;SDS011;19080;51.750;5.888;2022-07-21T04:33:04;24.73;;;22.20;;
32319;SDS011;19080;51.750;5.888;2022-07-21T04:35:32;20.95;;;18.88;;
32319;SDS011;19080;51.750;5.888;2022-07-21T04:37:59;21.73;;;19.50;;
32319;SDS011;19080;51.750;5.888;2022-07-21T04:40:25;21.67;;;19.58;;
32319;SDS011;19080;51.750;5.888;2022-07-21T04:42:51;22.55;;;20.42;;
32319;SDS011;19080;51.750;5.888;2022-07-21T04:45:18;21.20;;;19.02;;
32319;SDS011;19080;51.750;5.888;2022-07-21T04:47:49;22.35;;;20.17;;
32319;SDS011;19080;51.750;5.888;2022-07-21T04:50:17;21.98;;;19.75;;
32319;SDS011;19080;51.750;5.888;2022-07-21T04:52:44;20.60;;;18.65;;
32319;SDS011;19080;51.750;5.888;2022-07-21T04:55:10;19.95;;;17.92;;
32319;SDS011;19080;51.750;5.888;2022-07-21T04:57:38;23.80;;;21.52;;
32319;SDS011;19080;51.750;5.888;2022-07-21T05:00:06;20.30;;;18.40;;
32319;SDS011;19080;51.750;5.888;2022-07-21T05:02:32;21.40;;;19.35;;
32319;SDS011;19080;51.750;5.888;2022-07-21T05:04:59;23.42;;;21.13;;
32319;SDS011;19080;51.750;5.888;2022-07-21T05:07:25;21.70;;;19.35;;
32319;SDS011;19080;51.750;5.888;2022-07-21T05:09:52;22.85;;;20.42;;
32319;SDS011;19080;51.750;5.888;2022-07-21T05:12:18;23.00;;;20.85;;
32319;SDS011;19080;51.750;5.888;2022-07-21T05:14:45;19.85;;;17.98;;
32319;SDS011;19080;51.750;5.888;2022-07-21T05:17:11;20.55;;;18.45;;
32319;SDS011;19080;51.750;5.888;2022-07-21T05:19:38;24.73;;;22.13;;
32319;SDS011;19080;51.750;5.888;2022-07-21T05:22:04;21.98;;;19.77;;
32319;SDS011;19080;51.750;5.888;2022-07-21T05:24:30;25.30;;;22.85;;
32319;SDS011;19080;51.750;5.888;2022-07-21T05:26:57;22.45;;;20.15;;
32319;SDS011;19080;51.750;5.888;2022-07-21T05:29:23;22.40;;;20.05;;
32319;SDS011;19080;51.750;5.888;2022-07-21T05:31:50;24.48;;;21.60;;
32319;SDS011;19080;51.750;5.888;2022-07-21T05:34:16;23.25;;;21.02;;
32319;SDS011;19080;51.750;5.888;2022-07-21T05:36:42;28.00;;;25.08;;
32319;SDS011;19080;51.750;5.888;2022-07-21T05:39:09;22.65;;;20.45;;
32319;SDS011;19080;51.750;5.888;2022-07-21T05:41:35;22.70;;;20.30;;
32319;SDS011;19080;51.750;5.888;2022-07-21T05:44:02;25.35;;;21.70;;
32319;SDS011;19080;51.750;5.888;2022-07-21T05:46:28;26.70;;;23.77;;
32319;SDS011;19080;51.750;5.888;2022-07-21T05:48:55;25.77;;;23.13;;
32319;SDS011;19080;51.750;5.888;2022-07-21T05:51:21;21.63;;;19.40;;
32319;SDS011;19080;51.750;5.888;2022-07-21T05:53:48;24.30;;;21.75;;
32319;SDS011;19080;51.750;5.888;2022-07-21T05:56:14;24.38;;;21.92;;
32319;SDS011;19080;51.750;5.888;2022-07-21T05:58:41;25.35;;;22.63;;
32319;SDS011;19080;51.750;5.888;2022-07-21T06:01:07;24.65;;;22.23;;
32319;SDS011;19080;51.750;5.888;2022-07-21T06:06:07;26.17;;;23.55;;
32319;SDS011;19080;51.750;5.888;2022-07-21T06:08:33;27.20;;;22.50;;
32319;SDS011;19080;51.750;5.888;2022-07-21T06:11:00;23.77;;;21.38;;
32319;SDS011;19080;51.750;5.888;2022-07-21T06:13:27;23.77;;;21.08;;
32319;SDS011;19080;51.750;5.888;2022-07-21T06:15:53;24.02;;;21.63;;
32319;SDS011;19080;51.750;5.888;2022-07-21T06:18:20;23.17;;;20.83;;
32319;SDS011;19080;51.750;5.888;2022-07-21T06:20:48;21.77;;;18.95;;
32319;SDS011;19080;51.750;5.888;2022-07-21T06:23:15;19.08;;;17.08;;
32319;SDS011;19080;51.750;5.888;2022-07-21T06:25:42;20.23;;;17.98;;
32319;SDS011;19080;51.750;5.888;2022-07-21T06:28:08;19.40;;;16.83;;
32319;SDS011;19080;51.750;5.888;2022-07-21T06:30:35;20.13;;;17.88;;
32319;SDS011;19080;51.750;5.888;2022-07-21T06:33:01;22.77;;;16.70;;
32319;SDS011;19080;51.750;5.888;2022-07-21T06:35:29;21.05;;;18.25;;
32319;SDS011;19080;51.750;5.888;2022-07-21T06:37:55;20.33;;;17.45;;
32319;SDS011;19080;51.750;5.888;2022-07-21T06:40:22;19.17;;;17.00;;
32319;SDS011;19080;51.750;5.888;2022-07-21T06:42:48;24.17;;;18.77;;
32319;SDS011;19080;51.750;5.888;2022-07-21T06:45:34;21.13;;;18.88;;
32319;SDS011;19080;51.750;5.888;2022-07-21T06:48:02;24.88;;;19.52;;
32319;SDS011;19080;51.750;5.888;2022-07-21T06:50:28;26.20;;;20.75;;
32319;SDS011;19080;51.750;5.888;2022-07-21T06:52:55;27.10;;;20.30;;
32319;SDS011;19080;51.750;5.888;2022-07-21T06:55:22;24.60;;;20.15;;
32319;SDS011;19080;51.750;5.888;2022-07-21T06:57:48;21.55;;;19.20;;
32319;SDS011;19080;51.750;5.888;2022-07-21T07:00:14;25.67;;;21.35;;
32319;SDS011;19080;51.750;5.888;2022-07-21T07:02:41;30.20;;;22.02;;
32319;SDS011;19080;51.750;5.888;2022-07-21T07:05:08;27.70;;;22.65;;
32319;SDS011;19080;51.750;5.888;2022-07-21T07:07:35;25.02;;;20.95;;
32319;SDS011;19080;51.750;5.888;2022-07-21T07:10:01;27.15;;;20.08;;
32319;SDS011;19080;51.750;5.888;2022-07-21T07:12:28;25.92;;;20.92;;
32319;SDS011;19080;51.750;5.888;2022-07-21T07:15:15;27.65;;;22.55;;
32319;SDS011;19080;51.750;5.888;2022-07-21T07:17:41;30.20;;;22.50;;
32319;SDS011;19080;51.750;5.888;2022-07-21T07:20:08;29.55;;;23.35;;
32319;SDS011;19080;51.750;5.888;2022-07-21T07:22:34;29.00;;;23.88;;
32319;SDS011;19080;51.750;5.888;2022-07-21T07:25:01;29.90;;;25.25;;
32319;SDS011;19080;51.750;5.888;2022-07-21T07:27:27;29.10;;;23.38;;
32319;SDS011;19080;51.750;5.888;2022-07-21T07:29:59;27.55;;;23.85;;
32319;SDS011;19080;51.750;5.888;2022-07-21T07:32:34;28.65;;;24.70;;
32319;SDS011;19080;51.750;5.888;2022-07-21T07:35:01;29.70;;;23.98;;
32319;SDS011;19080;51.750;5.888;2022-07-21T07:37:27;33.97;;;27.27;;
32319;SDS011;19080;51.750;5.888;2022-07-21T07:39:54;36.08;;;27.73;;
32319;SDS011;19080;51.750;5.888;2022-07-21T07:42:20;29.83;;;23.83;;
32319;SDS011;19080;51.750;5.888;2022-07-21T07:44:47;33.78;;;25.83;;
32319;SDS011;19080;51.750;5.888;2022-07-21T07:47:14;27.50;;;23.08;;
32319;SDS011;19080;51.750;5.888;2022-07-21T07:49:40;26.67;;;23.23;;
32319;SDS011;19080;51.750;5.888;2022-07-21T07:52:06;32.67;;;25.65;;
32319;SDS011;19080;51.750;5.888;2022-07-21T07:54:33;27.67;;;22.52;;
32319;SDS011;19080;51.750;5.888;2022-07-21T07:56:59;26.20;;;21.88;;
32319;SDS011;19080;51.750;5.888;2022-07-21T07:59:26;22.48;;;19.58;;
32319;SDS011;19080;51.750;5.888;2022-07-21T08:01:52;26.17;;;21.95;;
32319;SDS011;19080;51.750;5.888;2022-07-21T08:04:19;22.98;;;19.73;;
32319;SDS011;19080;51.750;5.888;2022-07-21T08:06:45;25.95;;;21.55;;
32319;SDS011;19080;51.750;5.888;2022-07-21T08:09:12;21.48;;;18.65;;
32319;SDS011;19080;51.750;5.888;2022-07-21T08:11:38;27.70;;;20.33;;
32319;SDS011;19080;51.750;5.888;2022-07-21T08:14:04;23.70;;;20.52;;
32319;SDS011;19080;51.750;5.888;2022-07-21T08:16:31;24.15;;;19.75;;
32319;SDS011;19080;51.750;5.888;2022-07-21T08:18:57;24.75;;;18.90;;
32319;SDS011;19080;51.750;5.888;2022-07-21T08:21:24;29.23;;;20.85;;
32319;SDS011;19080;51.750;5.888;2022-07-21T08:24:16;19.75;;;16.90;;
32319;SDS011;19080;51.750;5.888;2022-07-21T08:26:42;20.05;;;17.40;;
32319;SDS011;19080;51.750;5.888;2022-07-21T08:29:10;18.85;;;16.48;;
32319;SDS011;19080;51.750;5.888;2022-07-21T08:31:37;24.13;;;18.38;;
32319;SDS011;19080;51.750;5.888;2022-07-21T08:34:03;23.23;;;18.50;;
32319;SDS011;19080;51.750;5.888;2022-07-21T08:36:30;24.02;;;17.25;;
32319;SDS011;19080;51.750;5.888;2022-07-21T08:38:56;22.52;;;17.77;;
32319;SDS011;19080;51.750;5.888;2022-07-21T08:41:23;26.30;;;19.77;;
32319;SDS011;19080;51.750;5.888;2022-07-21T08:43:50;21.88;;;17.88;;
32319;SDS011;19080;51.750;5.888;2022-07-21T08:46:18;21.80;;;18.33;;
32319;SDS011;19080;51.750;5.888;2022-07-21T08:48:47;20.63;;;18.13;;
32319;SDS011;19080;51.750;5.888;2022-07-21T08:51:14;22.27;;;17.23;;
32319;SDS011;19080;51.750;5.888;2022-07-21T08:53:45;24.77;;;19.77;;
32319;SDS011;19080;51.750;5.888;2022-07-21T08:56:13;22.65;;;18.05;;
32319;SDS011;19080;51.750;5.888;2022-07-21T08:58:39;24.70;;;18.95;;
32319;SDS011;19080;51.750;5.888;2022-07-21T09:01:06;23.05;;;19.23;;
32319;SDS011;19080;51.750;5.888;2022-07-21T09:03:33;23.55;;;18.52;;
32319;SDS011;19080;51.750;5.888;2022-07-21T09:06:10;24.10;;;18.75;;
32319;SDS011;19080;51.750;5.888;2022-07-21T09:08:38;17.10;;;13.70;;
32319;SDS011;19080;51.750;5.888;2022-07-21T09:13:35;10.18;;;8.00;;
32319;SDS011;19080;51.750;5.888;2022-07-21T09:16:02;6.15;;;5.22;;
32319;SDS011;19080;51.750;5.888;2022-07-21T09:18:28;6.97;;;6.28;;
32319;SDS011;19080;51.750;5.888;2022-07-21T09:20:56;6.53;;;5.05;;
32319;SDS011;19080;51.750;5.888;2022-07-21T09:23:24;4.95;;;4.45;;
32319;SDS011;19080;51.750;5.888;2022-07-21T09:25:53;6.18;;;4.10;;
32319;SDS011;19080;51.750;5.888;2022-07-21T09:30:51;5.15;;;4.75;;
32319;SDS011;19080;51.750;5.888;2022-07-21T09:33:28;4.55;;;4.07;;
32319;SDS011;19080;51.750;5.888;2022-07-21T09:38:25;6.82;;;6.13;;
32319;SDS011;19080;51.750;5.888;2022-07-21T09:40:52;6.63;;;5.93;;
32319;SDS011;19080;51.750;5.888;2022-07-21T09:43:32;7.45;;;6.70;;
32319;SDS011;19080;51.750;5.888;2022-07-21T09:46:00;7.07;;;6.38;;
32319;SDS011;19080;51.750;5.888;2022-07-21T09:48:31;7.35;;;6.65;;
32319;SDS011;19080;51.750;5.888;2022-07-21T09:54:11;8.25;;;7.30;;
32319;SDS011;19080;51.750;5.888;2022-07-21T09:56:40;6.30;;;5.70;;
32319;SDS011;19080;51.750;5.888;2022-07-21T09:59:08;9.43;;;7.05;;
32319;SDS011;19080;51.750;5.888;2022-07-21T10:01:35;8.35;;;5.32;;
32319;SDS011;19080;51.750;5.888;2022-07-21T10:04:03;6.60;;;5.50;;
32319;SDS011;19080;51.750;5.888;2022-07-21T10:06:34;6.53;;;5.93;;
32319;SDS011;19080;51.750;5.888;2022-07-21T10:09:01;6.63;;;5.75;;
32319;SDS011;19080;51.750;5.888;2022-07-21T10:11:28;6.85;;;6.10;;
32319;SDS011;19080;51.750;5.888;2022-07-21T10:13:56;6.15;;;5.53;;
32319;SDS011;19080;51.750;5.888;2022-07-21T10:16:22;6.35;;;5.85;;
32319;SDS011;19080;51.750;5.888;2022-07-21T10:21:36;8.32;;;7.43;;
32319;SDS011;19080;51.750;5.888;2022-07-21T10:24:05;6.85;;;6.15;;
32319;SDS011;19080;51.750;5.888;2022-07-21T10:26:32;7.47;;;6.78;;
32319;SDS011;19080;51.750;5.888;2022-07-21T10:28:59;7.82;;;7.00;;
32319;SDS011;19080;51.750;5.888;2022-07-21T10:31:25;7.13;;;6.50;;
32319;SDS011;19080;51.750;5.888;2022-07-21T10:34:00;7.80;;;7.13;;
32319;SDS011;19080;51.750;5.888;2022-07-21T10:41:39;8.02;;;7.20;;
32319;SDS011;19080;51.750;5.888;2022-07-21T10:44:51;7.53;;;6.82;;
32319;SDS011;19080;51.750;5.888;2022-07-21T10:50:08;7.18;;;6.57;;
32319;SDS011;19080;51.750;5.888;2022-07-21T10:57:36;8.15;;;6.80;;
32319;SDS011;19080;51.750;5.888;2022-07-21T11:03:04;7.10;;;6.50;;
32319;SDS011;19080;51.750;5.888;2022-07-21T11:05:31;6.00;;;5.28;;
32319;SDS011;19080;51.750;5.888;2022-07-21T11:10:38;6.60;;;5.43;;
32319;SDS011;19080;51.750;5.888;2022-07-21T11:13:04;6.13;;;5.53;;
32319;SDS011;19080;51.750;5.888;2022-07-21T11:18:26;5.10;;;4.60;;
32319;SDS011;19080;51.750;5.888;2022-07-21T11:21:00;6.00;;;5.40;;
32319;SDS011;19080;51.750;5.888;2022-07-21T11:23:37;6.55;;;5.47;;
32319;SDS011;19080;51.750;5.888;2022-07-21T11:26:04;7.22;;;5.40;;
32319;SDS011;19080;51.750;5.888;2022-07-21T11:28:30;6.60;;;6.00;;
32319;SDS011;19080;51.750;5.888;2022-07-21T11:31:10;6.00;;;5.40;;
32319;SDS011;19080;51.750;5.888;2022-07-21T11:33:37;6.45;;;5.32;;
32319;SDS011;19080;51.750;5.888;2022-07-21T11:36:05;6.10;;;5.60;;
32319;SDS011;19080;51.750;5.888;2022-07-21T11:41:16;6.07;;;5.50;;
32319;SDS011;19080;51.750;5.888;2022-07-21T11:43:44;8.65;;;5.35;;
32319;SDS011;19080;51.750;5.888;2022-07-21T11:46:11;7.15;;;6.45;;
32319;SDS011;19080;51.750;5.888;2022-07-21T11:48:37;9.40;;;7.03;;
32319;SDS011;19080;51.750;5.888;2022-07-21T11:51:06;6.45;;;5.95;;
32319;SDS011;19080;51.750;5.888;2022-07-21T11:53:32;9.63;;;7.35;;
32319;SDS011;19080;51.750;5.888;2022-07-21T11:55:59;7.65;;;6.95;;
32319;SDS011;19080;51.750;5.888;2022-07-21T11:58:25;8.25;;;7.45;;
32319;SDS011;19080;51.750;5.888;2022-07-21T12:01:13;9.65;;;7.35;;
32319;SDS011;19080;51.750;5.888;2022-07-21T12:03:49;10.73;;;8.60;;
32319;SDS011;19080;51.750;5.888;2022-07-21T12:06:17;8.27;;;6.95;;
32319;SDS011;19080;51.750;5.888;2022-07-21T12:08:44;8.93;;;8.02;;
32319;SDS011;19080;51.750;5.888;2022-07-21T12:11:10;10.50;;;8.30;;
32319;SDS011;19080;51.750;5.888;2022-07-21T12:13:51;9.32;;;8.43;;
32319;SDS011;19080;51.750;5.888;2022-07-21T12:16:19;10.10;;;9.13;;
32319;SDS011;19080;51.750;5.888;2022-07-21T12:18:45;10.63;;;8.88;;
32319;SDS011;19080;51.750;5.888;2022-07-21T12:21:13;11.63;;;9.00;;
32319;SDS011;19080;51.750;5.888;2022-07-21T12:23:40;12.45;;;8.68;;
32319;SDS011;19080;51.750;5.888;2022-07-21T12:26:06;9.75;;;8.75;;
32319;SDS011;19080;51.750;5.888;2022-07-21T12:28:46;12.23;;;8.90;;
32319;SDS011;19080;51.750;5.888;2022-07-21T12:31:15;8.75;;;7.95;;
32319;SDS011;19080;51.750;5.888;2022-07-21T12:33:42;12.07;;;9.15;;
32319;SDS011;19080;51.750;5.888;2022-07-21T12:36:29;9.95;;;8.68;;
32319;SDS011;19080;51.750;5.888;2022-07-21T12:38:55;10.02;;;9.13;;
32319;SDS011;19080;51.750;5.888;2022-07-21T12:41:22;10.68;;;9.57;;
32319;SDS011;19080;51.750;5.888;2022-07-21T12:43:56;9.38;;;8.32;;
32319;SDS011;19080;51.750;5.888;2022-07-21T12:46:32;7.55;;;6.80;;
32319;SDS011;19080;51.750;5.888;2022-07-21T12:49:09;8.40;;;7.70;;
32319;SDS011;19080;51.750;5.888;2022-07-21T12:51:38;8.27;;;7.45;;
32319;SDS011;19080;51.750;5.888;2022-07-21T12:54:05;8.43;;;7.32;;
32319;SDS011;19080;51.750;5.888;2022-07-21T12:56:32;8.23;;;6.78;;
32319;SDS011;19080;51.750;5.888;2022-07-21T12:59:00;8.98;;;7.53;;
32319;SDS011;19080;51.750;5.888;2022-07-21T13:01:27;7.47;;;6.78;;
32319;SDS011;19080;51.750;5.888;2022-07-21T13:03:54;8.68;;;7.65;;
32319;SDS011;19080;51.750;5.888;2022-07-21T13:06:21;8.50;;;7.70;;
32319;SDS011;19080;51.750;5.888;2022-07-21T13:08:48;7.88;;;7.18;;
32319;SDS011;19080;51.750;5.888;2022-07-21T13:11:15;8.90;;;8.00;;
32319;SDS011;19080;51.750;5.888;2022-07-21T13:13:42;7.40;;;6.65;;
32319;SDS011;19080;51.750;5.888;2022-07-21T13:16:09;6.88;;;6.35;;
32319;SDS011;19080;51.750;5.888;2022-07-21T13:18:35;8.10;;;7.03;;
32319;SDS011;19080;51.750;5.888;2022-07-21T13:21:02;7.30;;;6.60;;
32319;SDS011;19080;51.750;5.888;2022-07-21T13:23:29;7.28;;;6.55;;
32319;SDS011;19080;51.750;5.888;2022-07-21T13:25:56;6.45;;;5.85;;
32319;SDS011;19080;51.750;5.888;2022-07-21T13:28:32;7.30;;;5.78;;
32319;SDS011;19080;51.750;5.888;2022-07-21T13:31:00;9.95;;;6.00;;
32319;SDS011;19080;51.750;5.888;2022-07-21T13:33:27;5.80;;;5.30;;
32319;SDS011;19080;51.750;5.888;2022-07-21T13:35:53;6.32;;;5.72;;
32319;SDS011;19080;51.750;5.888;2022-07-21T13:38:20;5.85;;;5.35;;
32319;SDS011;19080;51.750;5.888;2022-07-21T13:40:46;7.43;;;5.65;;
32319;SDS011;19080;51.750;5.888;2022-07-21T13:43:33;11.80;;;5.57;;
32319;SDS011;19080;51.750;5.888;2022-07-21T13:46:05;5.55;;;4.88;;
32319;SDS011;19080;51.750;5.888;2022-07-21T13:48:31;5.75;;;5.25;;
32319;SDS011;19080;51.750;5.888;2022-07-21T13:51:03;7.13;;;5.25;;
32319;SDS011;19080;51.750;5.888;2022-07-21T13:53:29;5.70;;;5.13;;
32319;SDS011;19080;51.750;5.888;2022-07-21T13:55:56;5.90;;;5.43;;
32319;SDS011;19080;51.750;5.888;2022-07-21T13:58:22;7.07;;;5.72;;
32319;SDS011;19080;51.750;5.888;2022-07-21T14:00:49;5.75;;;5.25;;
32319;SDS011;19080;51.750;5.888;2022-07-21T14:03:17;6.40;;;5.90;;
32319;SDS011;19080;51.750;5.888;2022-07-21T14:05:45;8.18;;;7.35;;
32319;SDS011;19080;51.750;5.888;2022-07-21T14:08:11;7.93;;;7.10;;
32319;SDS011;19080;51.750;5.888;2022-07-21T14:10:38;7.65;;;7.07;;
32319;SDS011;19080;51.750;5.888;2022-07-21T14:13:04;9.43;;;8.43;;
32319;SDS011;19080;51.750;5.888;2022-07-21T14:15:31;8.90;;;8.07;;
32319;SDS011;19080;51.750;5.888;2022-07-21T14:17:57;9.10;;;8.30;;
32319;SDS011;19080;51.750;5.888;2022-07-21T14:20:24;8.70;;;7.93;;
32319;SDS011;19080;51.750;5.888;2022-07-21T14:22:53;9.30;;;8.50;;
32319;SDS011;19080;51.750;5.888;2022-07-21T14:25:20;7.82;;;7.20;;
32319;SDS011;19080;51.750;5.888;2022-07-21T14:27:51;9.25;;;8.20;;
32319;SDS011;19080;51.750;5.888;2022-07-21T14:30:20;8.43;;;7.63;;
32319;SDS011;19080;51.750;5.888;2022-07-21T14:32:47;5.20;;;4.70;;
32319;SDS011;19080;51.750;5.888;2022-07-21T14:35:14;5.78;;;5.07;;
32319;SDS011;19080;51.750;5.888;2022-07-21T14:37:43;9.10;;;4.68;;
32319;SDS011;19080;51.750;5.888;2022-07-21T14:40:09;6.43;;;5.80;;
32319;SDS011;19080;51.750;5.888;2022-07-21T14:42:36;5.82;;;5.32;;
32319;SDS011;19080;51.750;5.888;2022-07-21T14:45:03;6.32;;;5.72;;
32319;SDS011;19080;51.750;5.888;2022-07-21T14:47:37;6.10;;;5.60;;
32319;SDS011;19080;51.750;5.888;2022-07-21T14:50:05;6.13;;;5.53;;
32319;SDS011;19080;51.750;5.888;2022-07-21T14:52:31;5.85;;;5.25;;
32319;SDS011;19080;51.750;5.888;2022-07-21T14:54:57;5.57;;;5.03;;
32319;SDS011;19080;51.750;5.888;2022-07-21T14:57:24;5.15;;;4.75;;
32319;SDS011;19080;51.750;5.888;2022-07-21T14:59:51;5.72;;;5.20;;
32319;SDS011;19080;51.750;5.888;2022-07-21T15:02:17;6.22;;;3.88;;
32319;SDS011;19080;51.750;5.888;2022-07-21T15:04:47;7.80;;;3.55;;
32319;SDS011;19080;51.750;5.888;2022-07-21T15:07:13;4.30;;;3.60;;
32319;SDS011;19080;51.750;5.888;2022-07-21T15:09:40;4.78;;;3.70;;
32319;SDS011;19080;51.750;5.888;2022-07-21T15:12:06;3.97;;;3.45;;
32319;SDS011;19080;51.750;5.888;2022-07-21T15:14:33;3.60;;;3.30;;
32319;SDS011;19080;51.750;5.888;2022-07-21T15:16:59;4.57;;;4.13;;